sensor_id;sensor_type;location;lat;lon;timestamp;pressure;altitude;pressure_sealevel;temperature;humidity
70437;BME280;57877;39.750;-104.894;2022-10-26T00:01:15;83577.54;;;13.29;16.20
70437;BME280;57877;39.750;-104.894;2022-10-26T00:03:42;83577.23;;;13.69;15.88
70437;BME280;57877;39.750;-104.894;2022-10-26T00:06:08;83579.37;;;13.53;15.88
70437;BME280;57877;39.750;-104.894;2022-10-26T00:08:33;83581.71;;;14.00;16.04
70437;BME280;57877;39.750;-104.894;2022-10-26T00:10:59;83584.83;;;14.09;15.78
70437;BME280;57877;39.750;-104.894;2022-10-26T00:13:25;83594.02;;;14.22;15.61
70437;BME280;57877;39.750;-104.894;2022-10-26T00:15:51;83599.57;;;13.90;15.97
70437;BME280;57877;39.750;-104.894;2022-10-26T00:18:17;83599.08;;;13.59;15.95
70437;BME280;57877;39.750;-104.894;2022-10-26T00:20:42;83600.55;;;13.61;16.29
70437;BME280;57877;39.750;-104.894;2022-10-26T00:23:08;83602.83;;;13.21;16.24
70437;BME280;57877;39.750;-104.894;2022-10-26T00:25:35;83607.63;;;13.14;16.38
70437;BME280;57877;39.750;-104.894;2022-10-26T00:28:01;83607.37;;;13.42;16.34
70437;BME280;57877;39.750;-104.894;2022-10-26T00:30:26;83618.62;;;12.95;16.58
70437;BME280;57877;39.750;-104.894;2022-10-26T00:32:54;83620.09;;;13.31;16.61
70437;BME280;57877;39.750;-104.894;2022-10-26T00:35:19;83624.78;;;12.15;17.20
70437;BME280;57877;39.750;-104.894;2022-10-26T00:37:45;83631.97;;;12.32;17.10
70437;BME280;57877;39.750;-104.894;2022-10-26T00:40:11;83634.69;;;12.43;17.29
70437;BME280;57877;39.750;-104.894;2022-10-26T00:42:36;83637.02;;;13.09;16.83
70437;BME280;57877;39.750;-104.894;2022-10-26T00:45:08;83644.94;;;13.11;16.52
70437;BME280;57877;39.750;-104.894;2022-10-26T00:47:34;83650.24;;;12.65;17.03
70437;BME280;57877;39.750;-104.894;2022-10-26T00:49:56;83655.84;;;12.94;17.05
70437;BME280;57877;39.750;-104.894;2022-10-26T00:52:21;83654.67;;;13.17;16.91
70437;BME280;57877;39.750;-104.894;2022-10-26T00:54:47;83662.38;;;11.90;17.76
70437;BME280;57877;39.750;-104.894;2022-10-26T00:57:14;83663.60;;;11.32;18.15
70437;BME280;57877;39.750;-104.894;2022-10-26T00:59:39;83666.07;;;11.90;17.97
70437;BME280;57877;39.750;-104.894;2022-10-26T01:02:05;83665.73;;;12.06;17.77
70437;BME280;57877;39.750;-104.894;2022-10-26T01:04:32;83669.50;;;11.81;18.08
70437;BME280;57877;39.750;-104.894;2022-10-26T01:06:57;83671.24;;;12.00;17.95
70437;BME280;57877;39.750;-104.894;2022-10-26T01:09:23;83672.77;;;12.14;18.07
70437;BME280;57877;39.750;-104.894;2022-10-26T01:11:49;83677.73;;;12.01;17.89
70437;BME280;57877;39.750;-104.894;2022-10-26T01:14:17;83681.02;;;12.31;18.07
70437;BME280;57877;39.750;-104.894;2022-10-26T01:16:50;83683.28;;;11.99;17.77
70437;BME280;57877;39.750;-104.894;2022-10-26T01:21:44;83689.90;;;12.53;17.17
70437;BME280;57877;39.750;-104.894;2022-10-26T01:24:09;83692.30;;;12.69;17.23
70437;BME280;57877;39.750;-104.894;2022-10-26T01:31:22;83698.66;;;13.25;17.06
70437;BME280;57877;39.750;-104.894;2022-10-26T01:33:44;83694.75;;;12.81;17.11
70437;BME280;57877;39.750;-104.894;2022-10-26T01:36:11;83700.22;;;12.62;17.18
70437;BME280;57877;39.750;-104.894;2022-10-26T01:38:41;83709.38;;;12.94;16.72
70437;BME280;57877;39.750;-104.894;2022-10-26T01:41:04;83711.62;;;13.45;16.63
70437;BME280;57877;39.750;-104.894;2022-10-26T01:43:30;83717.93;;;12.91;16.70
70437;BME280;57877;39.750;-104.894;2022-10-26T01:45:53;83723.80;;;13.55;16.66
70437;BME280;57877;39.750;-104.894;2022-10-26T01:48:20;83726.12;;;13.37;17.19
70437;BME280;57877;39.750;-104.894;2022-10-26T01:50:46;83730.23;;;13.59;17.12
70437;BME280;57877;39.750;-104.894;2022-10-26T01:53:12;83736.27;;;13.54;17.23
70437;BME280;57877;39.750;-104.894;2022-10-26T01:55:43;83733.79;;;13.29;16.86
70437;BME280;57877;39.750;-104.894;2022-10-26T01:58:09;83732.24;;;13.39;16.79
70437;BME280;57877;39.750;-104.894;2022-10-26T02:00:29;83729.09;;;13.45;17.76
70437;BME280;57877;39.750;-104.894;2022-10-26T02:03:00;83727.16;;;13.14;17.45
70437;BME280;57877;39.750;-104.894;2022-10-26T02:07:54;83740.84;;;12.64;16.90
70437;BME280;57877;39.750;-104.894;2022-10-26T02:10:19;83741.35;;;11.99;17.28
70437;BME280;57877;39.750;-104.894;2022-10-26T02:12:42;83743.18;;;12.27;17.03
70437;BME280;57877;39.750;-104.894;2022-10-26T02:15:07;83745.86;;;12.55;17.16
70437;BME280;57877;39.750;-104.894;2022-10-26T02:17:34;83746.07;;;12.62;16.77
70437;BME280;57877;39.750;-104.894;2022-10-26T02:19:59;83745.97;;;12.68;16.67
70437;BME280;57877;39.750;-104.894;2022-10-26T02:22:25;83748.96;;;12.36;16.68
70437;BME280;57877;39.750;-104.894;2022-10-26T02:24:51;83746.41;;;12.24;16.80
70437;BME280;57877;39.750;-104.894;2022-10-26T02:27:17;83746.04;;;12.30;16.75
70437;BME280;57877;39.750;-104.894;2022-10-26T02:29:41;83742.27;;;12.10;17.07
70437;BME280;57877;39.750;-104.894;2022-10-26T02:32:07;83742.98;;;11.87;16.99
70437;BME280;57877;39.750;-104.894;2022-10-26T02:34:32;83742.21;;;12.29;16.97
70437;BME280;57877;39.750;-104.894;2022-10-26T02:37:00;83741.23;;;11.99;17.12
70437;BME280;57877;39.750;-104.894;2022-10-26T02:39:25;83746.17;;;12.46;17.36
70437;BME280;57877;39.750;-104.894;2022-10-26T02:41:50;83754.51;;;12.15;17.39
70437;BME280;57877;39.750;-104.894;2022-10-26T02:44:20;83753.58;;;12.36;16.92
70437;BME280;57877;39.750;-104.894;2022-10-26T02:46:42;83754.60;;;12.58;16.86
70437;BME280;57877;39.750;-104.894;2022-10-26T02:49:07;83756.40;;;12.19;17.08
70437;BME280;57877;39.750;-104.894;2022-10-26T02:51:39;83761.96;;;12.49;17.06
70437;BME280;57877;39.750;-104.894;2022-10-26T02:54:04;83761.90;;;11.91;17.24
70437;BME280;57877;39.750;-104.894;2022-10-26T02:56:28;83765.73;;;11.60;17.43
70437;BME280;57877;39.750;-104.894;2022-10-26T02:58:54;83765.35;;;11.26;17.87
70437;BME280;57877;39.750;-104.894;2022-10-26T03:01:16;83768.66;;;11.24;18.11
70437;BME280;57877;39.750;-104.894;2022-10-26T03:03:42;83771.95;;;10.89;18.49
70437;BME280;57877;39.750;-104.894;2022-10-26T03:06:08;83775.79;;;10.62;18.66
70437;BME280;57877;39.750;-104.894;2022-10-26T03:08:34;83778.24;;;11.59;18.69
70437;BME280;57877;39.750;-104.894;2022-10-26T03:11:00;83775.94;;;10.75;18.84
70437;BME280;57877;39.750;-104.894;2022-10-26T03:13:26;83782.05;;;10.41;19.08
70437;BME280;57877;39.750;-104.894;2022-10-26T03:15:54;83780.77;;;10.80;19.26
70437;BME280;57877;39.750;-104.894;2022-10-26T03:18:19;83783.60;;;10.37;19.47
70437;BME280;57877;39.750;-104.894;2022-10-26T03:20:43;83781.57;;;10.15;19.50
70437;BME280;57877;39.750;-104.894;2022-10-26T03:23:09;83781.84;;;10.12;19.79
70437;BME280;57877;39.750;-104.894;2022-10-26T03:25:35;83781.21;;;10.41;19.61
70437;BME280;57877;39.750;-104.894;2022-10-26T03:28:03;83780.70;;;9.72;19.98
70437;BME280;57877;39.750;-104.894;2022-10-26T03:30:28;83778.63;;;9.03;20.99
70437;BME280;57877;39.750;-104.894;2022-10-26T03:32:53;83783.94;;;8.64;21.90
70437;BME280;57877;39.750;-104.894;2022-10-26T03:35:18;83793.58;;;8.60;21.97
70437;BME280;57877;39.750;-104.894;2022-10-26T03:37:44;83796.31;;;7.84;22.22
70437;BME280;57877;39.750;-104.894;2022-10-26T03:40:10;83800.09;;;8.44;21.97
70437;BME280;57877;39.750;-104.894;2022-10-26T03:42:36;83802.66;;;8.22;22.38
70437;BME280;57877;39.750;-104.894;2022-10-26T03:45:01;83801.43;;;7.97;22.43
70437;BME280;57877;39.750;-104.894;2022-10-26T03:47:26;83799.52;;;7.64;22.82
70437;BME280;57877;39.750;-104.894;2022-10-26T03:49:52;83808.48;;;7.55;23.45
70437;BME280;57877;39.750;-104.894;2022-10-26T03:52:18;83807.07;;;7.59;23.44
70437;BME280;57877;39.750;-104.894;2022-10-26T03:54:44;83807.52;;;8.08;23.29
70437;BME280;57877;39.750;-104.894;2022-10-26T03:57:10;83809.09;;;7.18;24.19
70437;BME280;57877;39.750;-104.894;2022-10-26T03:59:36;83809.36;;;7.09;25.63
70437;BME280;57877;39.750;-104.894;2022-10-26T04:02:08;83812.95;;;7.05;26.24
70437;BME280;57877;39.750;-104.894;2022-10-26T04:04:28;83817.91;;;7.23;26.54
70437;BME280;57877;39.750;-104.894;2022-10-26T04:06:54;83822.19;;;7.08;26.97
70437;BME280;57877;39.750;-104.894;2022-10-26T04:09:20;83825.51;;;6.89;27.51
70437;BME280;57877;39.750;-104.894;2022-10-26T04:11:46;83833.46;;;6.41;28.11
70437;BME280;57877;39.750;-104.894;2022-10-26T04:14:12;83836.68;;;6.64;27.90
70437;BME280;57877;39.750;-104.894;2022-10-26T04:16:36;83837.20;;;6.98;27.61
70437;BME280;57877;39.750;-104.894;2022-10-26T04:19:01;83838.88;;;7.12;27.32
70437;BME280;57877;39.750;-104.894;2022-10-26T04:21:26;83838.56;;;7.53;27.01
70437;BME280;57877;39.750;-104.894;2022-10-26T04:23:56;83839.09;;;7.98;26.21
70437;BME280;57877;39.750;-104.894;2022-10-26T04:26:16;83846.93;;;7.06;26.76
70437;BME280;57877;39.750;-104.894;2022-10-26T04:28:41;83856.22;;;7.53;26.40
70437;BME280;57877;39.750;-104.894;2022-10-26T04:31:06;83855.69;;;7.70;26.11
70437;BME280;57877;39.750;-104.894;2022-10-26T04:33:31;83855.06;;;7.84;25.88
70437;BME280;57877;39.750;-104.894;2022-10-26T04:35:58;83858.70;;;7.45;25.58
70437;BME280;57877;39.750;-104.894;2022-10-26T04:38:21;83859.97;;;8.35;24.92
70437;BME280;57877;39.750;-104.894;2022-10-26T04:40:46;83862.60;;;7.53;25.49
70437;BME280;57877;39.750;-104.894;2022-10-26T04:43:12;83865.07;;;7.74;25.58
70437;BME280;57877;39.750;-104.894;2022-10-26T04:45:38;83862.75;;;7.97;25.40
70437;BME280;57877;39.750;-104.894;2022-10-26T04:48:05;83856.56;;;8.48;24.52
70437;BME280;57877;39.750;-104.894;2022-10-26T04:50:29;83853.37;;;8.08;24.47
70437;BME280;57877;39.750;-104.894;2022-10-26T04:52:53;83860.10;;;8.30;24.17
70437;BME280;57877;39.750;-104.894;2022-10-26T04:55:18;83862.13;;;8.77;24.05
70437;BME280;57877;39.750;-104.894;2022-10-26T04:57:44;83855.92;;;8.66;23.78
70437;BME280;57877;39.750;-104.894;2022-10-26T05:00:10;83860.90;;;8.56;23.43
70437;BME280;57877;39.750;-104.894;2022-10-26T05:02:34;83868.50;;;8.97;22.87
70437;BME280;57877;39.750;-104.894;2022-10-26T05:04:59;83869.64;;;9.25;22.62
70437;BME280;57877;39.750;-104.894;2022-10-26T05:07:25;83866.79;;;9.37;22.50
70437;BME280;57877;39.750;-104.894;2022-10-26T05:09:51;83867.45;;;9.24;22.29
70437;BME280;57877;39.750;-104.894;2022-10-26T05:12:17;83864.96;;;9.08;22.34
70437;BME280;57877;39.750;-104.894;2022-10-26T05:14:44;83863.79;;;9.36;22.17
70437;BME280;57877;39.750;-104.894;2022-10-26T05:17:09;83864.65;;;9.57;22.19
70437;BME280;57877;39.750;-104.894;2022-10-26T05:19:36;83861.45;;;9.49;22.04
70437;BME280;57877;39.750;-104.894;2022-10-26T05:22:00;83855.64;;;9.37;22.00
70437;BME280;57877;39.750;-104.894;2022-10-26T05:24:26;83853.81;;;9.07;22.12
70437;BME280;57877;39.750;-104.894;2022-10-26T05:26:51;83857.23;;;9.61;21.80
70437;BME280;57877;39.750;-104.894;2022-10-26T05:29:17;83860.88;;;9.56;21.64
70437;BME280;57877;39.750;-104.894;2022-10-26T05:31:43;83859.85;;;9.32;21.77
70437;BME280;57877;39.750;-104.894;2022-10-26T05:34:08;83856.28;;;9.20;21.58
70437;BME280;57877;39.750;-104.894;2022-10-26T05:36:33;83853.01;;;9.19;21.70
70437;BME280;57877;39.750;-104.894;2022-10-26T05:39:01;83857.55;;;9.52;21.66
70437;BME280;57877;39.750;-104.894;2022-10-26T05:41:23;83857.60;;;9.55;21.64
70437;BME280;57877;39.750;-104.894;2022-10-26T05:43:48;83852.06;;;9.32;21.68
70437;BME280;57877;39.750;-104.894;2022-10-26T05:46:14;83853.66;;;9.28;21.71
70437;BME280;57877;39.750;-104.894;2022-10-26T05:48:40;83851.75;;;9.21;21.71
70437;BME280;57877;39.750;-104.894;2022-10-26T05:51:05;83856.96;;;9.27;21.94
70437;BME280;57877;39.750;-104.894;2022-10-26T05:53:30;83857.38;;;9.43;21.52
70437;BME280;57877;39.750;-104.894;2022-10-26T05:55:56;83853.95;;;8.92;21.69
70437;BME280;57877;39.750;-104.894;2022-10-26T05:58:21;83851.57;;;9.15;22.11
70437;BME280;57877;39.750;-104.894;2022-10-26T06:00:56;83856.00;;;9.16;21.53
70437;BME280;57877;39.750;-104.894;2022-10-26T06:03:22;83854.83;;;9.54;21.35
70437;BME280;57877;39.750;-104.894;2022-10-26T06:05:49;83858.23;;;9.66;21.51
70437;BME280;57877;39.750;-104.894;2022-10-26T06:08:08;83857.02;;;9.44;21.59
70437;BME280;57877;39.750;-104.894;2022-10-26T06:10:31;83858.09;;;9.54;21.30
70437;BME280;57877;39.750;-104.894;2022-10-26T06:12:56;83854.11;;;9.23;21.35
70437;BME280;57877;39.750;-104.894;2022-10-26T06:15:23;83852.43;;;9.64;21.47
70437;BME280;57877;39.750;-104.894;2022-10-26T06:17:56;83854.20;;;9.49;21.63
70437;BME280;57877;39.750;-104.894;2022-10-26T06:20:25;83854.41;;;8.99;22.06
70437;BME280;57877;39.750;-104.894;2022-10-26T06:22:48;83852.34;;;9.09;22.04
70437;BME280;57877;39.750;-104.894;2022-10-26T06:25:13;83846.87;;;8.88;22.25
70437;BME280;57877;39.750;-104.894;2022-10-26T06:27:36;83842.97;;;9.23;22.02
70437;BME280;57877;39.750;-104.894;2022-10-26T06:30:00;83840.06;;;8.44;22.43
70437;BME280;57877;39.750;-104.894;2022-10-26T06:32:22;83837.00;;;8.89;22.18
70437;BME280;57877;39.750;-104.894;2022-10-26T06:34:48;83833.39;;;9.26;22.57
70437;BME280;57877;39.750;-104.894;2022-10-26T06:37:13;83829.59;;;9.30;21.99
70437;BME280;57877;39.750;-104.894;2022-10-26T06:39:43;83831.72;;;8.73;22.09
70437;BME280;57877;39.750;-104.894;2022-10-26T06:42:09;83833.46;;;9.12;22.04
70437;BME280;57877;39.750;-104.894;2022-10-26T06:44:31;83835.67;;;9.23;21.97
70437;BME280;57877;39.750;-104.894;2022-10-26T06:47:03;83838.61;;;9.20;21.96
70437;BME280;57877;39.750;-104.894;2022-10-26T06:49:27;83841.60;;;9.54;21.82
70437;BME280;57877;39.750;-104.894;2022-10-26T06:54:19;83838.17;;;8.84;22.22
70437;BME280;57877;39.750;-104.894;2022-10-26T06:56:41;83839.12;;;8.83;22.29
70437;BME280;57877;39.750;-104.894;2022-10-26T06:59:13;83838.33;;;9.11;22.08
70437;BME280;57877;39.750;-104.894;2022-10-26T07:01:32;83838.72;;;8.83;22.40
70437;BME280;57877;39.750;-104.894;2022-10-26T07:03:57;83837.06;;;8.74;22.58
70437;BME280;57877;39.750;-104.894;2022-10-26T07:06:23;83835.57;;;8.86;22.25
70437;BME280;57877;39.750;-104.894;2022-10-26T07:08:47;83833.70;;;9.27;21.99
70437;BME280;57877;39.750;-104.894;2022-10-26T07:11:12;83834.01;;;8.65;22.40
70437;BME280;57877;39.750;-104.894;2022-10-26T07:13:38;83833.79;;;9.16;22.12
70437;BME280;57877;39.750;-104.894;2022-10-26T07:16:05;83831.57;;;8.88;22.28
70437;BME280;57877;39.750;-104.894;2022-10-26T07:18:29;83831.52;;;8.41;22.63
70437;BME280;57877;39.750;-104.894;2022-10-26T07:20:54;83826.55;;;8.62;22.49
70437;BME280;57877;39.750;-104.894;2022-10-26T07:23:19;83824.90;;;8.68;22.25
70437;BME280;57877;39.750;-104.894;2022-10-26T07:25:45;83823.52;;;8.82;22.70
70437;BME280;57877;39.750;-104.894;2022-10-26T07:28:11;83821.19;;;9.28;22.36
70437;BME280;57877;39.750;-104.894;2022-10-26T07:30:42;83817.38;;;9.08;22.20
70437;BME280;57877;39.750;-104.894;2022-10-26T07:33:04;83814.15;;;8.64;22.54
70437;BME280;57877;39.750;-104.894;2022-10-26T07:35:27;83818.06;;;9.07;22.60
70437;BME280;57877;39.750;-104.894;2022-10-26T07:37:56;83814.73;;;7.79;23.19
70437;BME280;57877;39.750;-104.894;2022-10-26T07:40:18;83815.26;;;8.41;23.21
70437;BME280;57877;39.750;-104.894;2022-10-26T07:42:45;83813.94;;;8.07;23.55
70437;BME280;57877;39.750;-104.894;2022-10-26T07:45:11;83816.39;;;8.24;23.07
70437;BME280;57877;39.750;-104.894;2022-10-26T07:47:39;83815.97;;;8.08;23.41
70437;BME280;57877;39.750;-104.894;2022-10-26T07:50:02;83809.86;;;8.06;23.20
70437;BME280;57877;39.750;-104.894;2022-10-26T07:52:27;83810.38;;;8.61;22.96
70437;BME280;57877;39.750;-104.894;2022-10-26T07:54:52;83807.21;;;8.24;22.99
70437;BME280;57877;39.750;-104.894;2022-10-26T07:57:17;83809.73;;;7.92;23.55
70437;BME280;57877;39.750;-104.894;2022-10-26T07:59:47;83798.31;;;8.25;23.01
70437;BME280;57877;39.750;-104.894;2022-10-26T08:02:08;83792.34;;;8.39;23.02
70437;BME280;57877;39.750;-104.894;2022-10-26T08:04:32;83785.81;;;8.43;22.85
70437;BME280;57877;39.750;-104.894;2022-10-26T08:06:57;83781.32;;;7.81;23.69
70437;BME280;57877;39.750;-104.894;2022-10-26T08:09:23;83777.86;;;7.47;23.87
70437;BME280;57877;39.750;-104.894;2022-10-26T08:11:48;83771.03;;;7.17;24.72
70437;BME280;57877;39.750;-104.894;2022-10-26T08:14:13;83762.40;;;7.18;24.76
70437;BME280;57877;39.750;-104.894;2022-10-26T08:16:48;83749.66;;;7.79;24.25
70437;BME280;57877;39.750;-104.894;2022-10-26T08:19:04;83738.15;;;7.74;24.27
70437;BME280;57877;39.750;-104.894;2022-10-26T08:21:29;83731.90;;;7.56;24.62
70437;BME280;57877;39.750;-104.894;2022-10-26T08:23:54;83735.11;;;7.54;24.58
70437;BME280;57877;39.750;-104.894;2022-10-26T08:26:19;83737.16;;;7.97;23.98
70437;BME280;57877;39.750;-104.894;2022-10-26T08:28:48;83742.09;;;7.61;24.04
70437;BME280;57877;39.750;-104.894;2022-10-26T08:31:10;83746.52;;;8.08;23.83
70437;BME280;57877;39.750;-104.894;2022-10-26T08:33:35;83745.14;;;7.77;23.88
70437;BME280;57877;39.750;-104.894;2022-10-26T08:36:02;83741.45;;;7.73;23.98
70437;BME280;57877;39.750;-104.894;2022-10-26T08:38:26;83736.69;;;7.78;24.13
70437;BME280;57877;39.750;-104.894;2022-10-26T08:40:50;83728.49;;;7.62;24.22
70437;BME280;57877;39.750;-104.894;2022-10-26T08:43:20;83726.74;;;7.65;24.37
70437;BME280;57877;39.750;-104.894;2022-10-26T08:45:46;83727.01;;;7.72;24.39
70437;BME280;57877;39.750;-104.894;2022-10-26T08:48:12;83729.19;;;7.60;24.30
70437;BME280;57877;39.750;-104.894;2022-10-26T08:50:33;83727.33;;;8.04;24.12
70437;BME280;57877;39.750;-104.894;2022-10-26T08:53:00;83726.19;;;7.83;24.16
70437;BME280;57877;39.750;-104.894;2022-10-26T08:55:28;83725.72;;;7.80;24.02
70437;BME280;57877;39.750;-104.894;2022-10-26T08:57:49;83732.94;;;7.43;24.40
70437;BME280;57877;39.750;-104.894;2022-10-26T09:00:19;83738.60;;;7.82;23.83
70437;BME280;57877;39.750;-104.894;2022-10-26T09:02:39;83731.17;;;8.03;24.00
70437;BME280;57877;39.750;-104.894;2022-10-26T09:05:14;83729.11;;;8.26;23.91
70437;BME280;57877;39.750;-104.894;2022-10-26T09:07:41;83726.80;;;8.16;23.69
70437;BME280;57877;39.750;-104.894;2022-10-26T09:10:03;83723.48;;;8.32;23.81
70437;BME280;57877;39.750;-104.894;2022-10-26T09:12:29;83721.76;;;8.33;23.76
70437;BME280;57877;39.750;-104.894;2022-10-26T09:14:56;83716.02;;;8.21;23.66
70437;BME280;57877;39.750;-104.894;2022-10-26T09:17:20;83715.01;;;7.86;23.96
70437;BME280;57877;39.750;-104.894;2022-10-26T09:19:49;83715.40;;;7.80;23.96
70437;BME280;57877;39.750;-104.894;2022-10-26T09:22:11;83712.72;;;8.24;23.91
70437;BME280;57877;39.750;-104.894;2022-10-26T09:24:32;83707.63;;;7.89;24.12
70437;BME280;57877;39.750;-104.894;2022-10-26T09:27:00;83706.90;;;7.94;24.07
70437;BME280;57877;39.750;-104.894;2022-10-26T09:29:26;83703.53;;;7.56;24.53
70437;BME280;57877;39.750;-104.894;2022-10-26T09:31:49;83695.97;;;7.78;24.36
70437;BME280;57877;39.750;-104.894;2022-10-26T09:34:20;83689.14;;;7.55;24.77
70437;BME280;57877;39.750;-104.894;2022-10-26T09:36:40;83681.44;;;7.80;24.69
70437;BME280;57877;39.750;-104.894;2022-10-26T09:39:13;83677.84;;;7.20;25.41
70437;BME280;57877;39.750;-104.894;2022-10-26T09:41:37;83675.41;;;7.48;25.17
70437;BME280;57877;39.750;-104.894;2022-10-26T09:44:00;83674.06;;;7.12;25.58
70437;BME280;57877;39.750;-104.894;2022-10-26T09:46:27;83673.13;;;7.60;25.27
70437;BME280;57877;39.750;-104.894;2022-10-26T09:48:51;83671.82;;;6.98;25.89
70437;BME280;57877;39.750;-104.894;2022-10-26T09:51:15;83672.47;;;7.18;25.99
70437;BME280;57877;39.750;-104.894;2022-10-26T09:53:40;83668.89;;;6.79;25.92
70437;BME280;57877;39.750;-104.894;2022-10-26T09:56:10;83656.46;;;6.61;26.23
70437;BME280;57877;39.750;-104.894;2022-10-26T09:58:35;83647.22;;;7.01;26.24
70437;BME280;57877;39.750;-104.894;2022-10-26T10:00:57;83638.92;;;7.27;25.59
70437;BME280;57877;39.750;-104.894;2022-10-26T10:03:26;83634.93;;;7.14;25.42
70437;BME280;57877;39.750;-104.894;2022-10-26T10:05:49;83636.00;;;7.27;25.31
70437;BME280;57877;39.750;-104.894;2022-10-26T10:08:17;83638.09;;;7.44;25.02
70437;BME280;57877;39.750;-104.894;2022-10-26T10:10:53;83642.73;;;7.09;25.22
70437;BME280;57877;39.750;-104.894;2022-10-26T10:13:14;83642.32;;;7.33;24.50
70437;BME280;57877;39.750;-104.894;2022-10-26T10:15:32;83641.00;;;6.84;25.18
70437;BME280;57877;39.750;-104.894;2022-10-26T10:17:59;83639.41;;;7.39;24.48
70437;BME280;57877;39.750;-104.894;2022-10-26T10:20:29;83640.16;;;7.23;24.90
70437;BME280;57877;39.750;-104.894;2022-10-26T10:22:54;83642.21;;;7.52;24.70
70437;BME280;57877;39.750;-104.894;2022-10-26T10:25:21;83645.00;;;7.67;24.27
70437;BME280;57877;39.750;-104.894;2022-10-26T10:27:49;83640.88;;;7.87;24.06
70437;BME280;57877;39.750;-104.894;2022-10-26T10:30:19;83639.95;;;7.38;24.25
70437;BME280;57877;39.750;-104.894;2022-10-26T10:32:32;83634.84;;;7.28;24.47
70437;BME280;57877;39.750;-104.894;2022-10-26T10:34:59;83629.90;;;7.26;24.42
70437;BME280;57877;39.750;-104.894;2022-10-26T10:37:26;83625.55;;;7.64;24.27
70437;BME280;57877;39.750;-104.894;2022-10-26T10:39:50;83621.36;;;7.03;24.62
70437;BME280;57877;39.750;-104.894;2022-10-26T10:42:20;83618.28;;;7.09;24.89
70437;BME280;57877;39.750;-104.894;2022-10-26T10:47:13;83608.22;;;7.34;24.51
70437;BME280;57877;39.750;-104.894;2022-10-26T10:49:32;83608.61;;;7.28;24.82
70437;BME280;57877;39.750;-104.894;2022-10-26T10:51:58;83609.80;;;7.49;24.64
70437;BME280;57877;39.750;-104.894;2022-10-26T10:54:26;83610.77;;;6.81;25.22
70437;BME280;57877;39.750;-104.894;2022-10-26T10:56:51;83616.67;;;6.90;25.20
70437;BME280;57877;39.750;-104.894;2022-10-26T10:59:22;83618.36;;;7.21;25.12
70437;BME280;57877;39.750;-104.894;2022-10-26T11:01:45;83616.07;;;6.48;25.46
70437;BME280;57877;39.750;-104.894;2022-10-26T11:06:31;83592.82;;;6.11;26.20
70437;BME280;57877;39.750;-104.894;2022-10-26T11:09:00;83582.32;;;6.20;26.63
70437;BME280;57877;39.750;-104.894;2022-10-26T11:11:24;83577.78;;;5.59;27.22
70437;BME280;57877;39.750;-104.894;2022-10-26T11:13:51;83575.86;;;5.97;26.93
70437;BME280;57877;39.750;-104.894;2022-10-26T11:16:14;83579.76;;;6.04;26.36
70437;BME280;57877;39.750;-104.894;2022-10-26T11:18:40;83588.32;;;6.73;25.93
70437;BME280;57877;39.750;-104.894;2022-10-26T11:21:04;83591.67;;;6.97;25.56
70437;BME280;57877;39.750;-104.894;2022-10-26T11:23:33;83590.93;;;6.53;25.85
70437;BME280;57877;39.750;-104.894;2022-10-26T11:25:54;83588.92;;;6.88;25.79
70437;BME280;57877;39.750;-104.894;2022-10-26T11:28:23;83586.07;;;7.00;25.52
70437;BME280;57877;39.750;-104.894;2022-10-26T11:30:45;83587.11;;;6.80;25.56
70437;BME280;57877;39.750;-104.894;2022-10-26T11:33:14;83592.93;;;5.96;26.84
70437;BME280;57877;39.750;-104.894;2022-10-26T11:35:39;83592.13;;;6.37;26.63
70437;BME280;57877;39.750;-104.894;2022-10-26T11:38:03;83587.05;;;6.70;26.02
70437;BME280;57877;39.750;-104.894;2022-10-26T11:40:32;83586.89;;;6.38;26.28
70437;BME280;57877;39.750;-104.894;2022-10-26T11:42:55;83589.79;;;6.89;25.70
70437;BME280;57877;39.750;-104.894;2022-10-26T11:45:19;83591.89;;;6.32;26.36
70437;BME280;57877;39.750;-104.894;2022-10-26T11:47:45;83590.65;;;6.97;25.80
70437;BME280;57877;39.750;-104.894;2022-10-26T11:50:13;83590.11;;;7.23;25.25
70437;BME280;57877;39.750;-104.894;2022-10-26T11:52:37;83589.59;;;7.06;25.48
70437;BME280;57877;39.750;-104.894;2022-10-26T11:54:58;83580.78;;;6.29;26.08
70437;BME280;57877;39.750;-104.894;2022-10-26T11:57:22;83575.93;;;6.71;26.13
70437;BME280;57877;39.750;-104.894;2022-10-26T11:59:50;83576.56;;;6.07;26.92
70437;BME280;57877;39.750;-104.894;2022-10-26T12:02:14;83570.42;;;5.98;26.74
70437;BME280;57877;39.750;-104.894;2022-10-26T12:04:38;83567.93;;;6.10;27.07
70437;BME280;57877;39.750;-104.894;2022-10-26T12:07:07;83563.33;;;6.55;26.52
70437;BME280;57877;39.750;-104.894;2022-10-26T12:09:30;83569.57;;;6.31;26.61
70437;BME280;57877;39.750;-104.894;2022-10-26T12:12:00;83571.92;;;6.39;26.15
70437;BME280;57877;39.750;-104.894;2022-10-26T12:14:22;83572.19;;;6.82;25.47
70437;BME280;57877;39.750;-104.894;2022-10-26T12:19:14;83569.21;;;6.85;25.69
70437;BME280;57877;39.750;-104.894;2022-10-26T12:21:34;83566.83;;;6.63;25.70
70437;BME280;57877;39.750;-104.894;2022-10-26T12:23:59;83567.26;;;6.72;26.41
70437;BME280;57877;39.750;-104.894;2022-10-26T12:33:48;83540.28;;;6.76;25.78
70437;BME280;57877;39.750;-104.894;2022-10-26T12:48:20;83534.73;;;6.95;25.36
70437;BME280;57877;39.750;-104.894;2022-10-26T12:50:38;83538.48;;;6.51;26.13
70437;BME280;57877;39.750;-104.894;2022-10-26T12:53:09;83532.69;;;5.63;26.82
70437;BME280;57877;39.750;-104.894;2022-10-26T13:00:23;83525.53;;;6.34;26.12
70437;BME280;57877;39.750;-104.894;2022-10-26T13:02:57;83524.91;;;5.96;26.90
70437;BME280;57877;39.750;-104.894;2022-10-26T13:07:37;83523.66;;;5.21;27.85
70437;BME280;57877;39.750;-104.894;2022-10-26T13:10:04;83522.94;;;5.57;28.17
70437;BME280;57877;39.750;-104.894;2022-10-26T13:12:26;83519.25;;;5.62;27.71
70437;BME280;57877;39.750;-104.894;2022-10-26T13:14:57;83517.27;;;5.57;27.66